createdAt,value
2023-05-22T00:00:01.257Z,0
2023-05-22T00:01:06.000Z,0
2023-05-22T00:02:06.000Z,0
2023-05-22T00:02:22.000Z,0
2023-05-22T00:03:38.000Z,0
2023-05-22T00:05:05.793Z,0
2023-05-22T00:06:11.000Z,0
2023-05-22T00:07:38.434Z,0
2023-05-22T00:09:59.000Z,0
2023-05-22T00:11:16.000Z,0
2023-05-22T00:12:42.968Z,0
2023-05-22T00:13:59.163Z,0
2023-05-22T00:15:15.615Z,0
2023-05-22T00:16:19.000Z,0
2023-05-22T00:17:36.000Z,0
2023-05-22T00:18:52.000Z,0
2023-05-22T00:20:08.000Z,0
2023-05-22T00:21:35.357Z,0
2023-05-22T00:22:51.553Z,0
2023-05-22T00:23:57.000Z,0
2023-05-22T00:25:23.944Z,0
2023-05-22T00:26:40.385Z,0
2023-05-22T00:27:56.335Z,0
2023-05-22T00:29:01.000Z,0
2023-05-22T00:30:28.728Z,0
2023-05-22T00:31:44.923Z,0
2023-05-22T00:33:00.136Z,0
2023-05-22T00:34:05.000Z,0
2023-05-22T00:35:21.000Z,0
2023-05-22T00:36:48.723Z,0
2023-05-22T00:37:54.000Z,0
2023-05-22T00:39:10.000Z,0
2023-05-22T00:40:26.000Z,0
2023-05-22T00:41:42.000Z,0
2023-05-22T00:43:09.954Z,0
2023-05-22T00:44:25.899Z,0
2023-05-22T00:45:42.339Z,0
2023-05-22T00:46:58.291Z,0
2023-05-22T00:48:03.000Z,0
2023-05-22T00:49:19.000Z,0
2023-05-22T00:50:46.143Z,0
2023-05-22T00:51:51.000Z,0
2023-05-22T00:53:18.288Z,0
2023-05-22T00:54:23.000Z,0
2023-05-22T00:55:50.680Z,0
2023-05-22T00:57:06.874Z,0
2023-05-22T00:58:23.067Z,0
2023-05-22T00:59:39.261Z,0
2023-05-22T01:00:55.454Z,0
2023-05-22T01:02:11.648Z,0
2023-05-22T01:03:17.000Z,0
2023-05-22T01:04:44.036Z,0
2023-05-22T01:05:48.000Z,0
2023-05-22T01:07:04.000Z,0
2023-05-22T01:08:20.000Z,0
2023-05-22T01:09:19.000Z,0
2023-05-22T01:09:37.000Z,0
2023-05-22T01:10:36.000Z,0
2023-05-22T01:10:53.000Z,0
2023-05-22T01:12:19.235Z,0
2023-05-22T01:13:35.675Z,0
2023-05-22T01:14:51.623Z,0
2023-05-22T01:18:40.204Z,0
2023-05-22T01:19:45.000Z,0
2023-05-22T01:21:01.000Z,0
2023-05-22T01:22:28.785Z,0
2023-05-22T01:23:44.979Z,0
2023-05-22T01:25:01.418Z,0
2023-05-22T01:26:06.000Z,0
2023-05-22T01:27:22.000Z,0
2023-05-22T01:28:38.000Z,0
2023-05-22T01:29:54.000Z,0
2023-05-22T01:31:21.158Z,0
2023-05-22T01:32:26.000Z,0
2023-05-22T01:33:42.000Z,0
2023-05-22T01:35:09.739Z,0
2023-05-22T01:36:15.000Z,0
2023-05-22T01:37:31.000Z,0
2023-05-22T01:38:58.319Z,0
2023-05-22T01:40:03.000Z,0
2023-05-22T01:41:30.949Z,0
2023-05-22T01:42:46.900Z,0
2023-05-22T01:43:52.000Z,0
2023-05-22T01:45:07.000Z,0
2023-05-22T01:46:34.743Z,0
2023-05-22T01:47:50.936Z,0
2023-05-22T01:48:56.000Z,0
2023-05-22T01:50:23.080Z,0
2023-05-22T01:51:39.274Z,0
2023-05-22T01:52:55.468Z,0
2023-05-22T01:54:11.913Z,0
2023-05-22T01:55:17.000Z,0
2023-05-22T01:56:44.292Z,0
2023-05-22T01:57:49.000Z,0
2023-05-22T01:59:05.000Z,0
2023-05-22T02:00:21.000Z,0
2023-05-22T02:01:37.000Z,0
2023-05-22T02:02:53.000Z,0
2023-05-22T02:04:09.000Z,0
2023-05-22T02:05:36.666Z,0
2023-05-22T02:06:41.000Z,0
2023-05-22T02:07:58.000Z,0
2023-05-22T02:09:25.245Z,0
2023-05-22T02:10:30.000Z,0
2023-05-22T02:11:57.633Z,0
2023-05-22T02:13:02.000Z,0
2023-05-22T02:14:30.031Z,0
2023-05-22T02:15:46.216Z,0
2023-05-22T02:17:02.163Z,0
2023-05-22T02:18:06.000Z,0
2023-05-22T02:19:22.000Z,0
2023-05-22T02:20:50.015Z,0
2023-05-22T02:21:55.000Z,0
2023-05-22T02:23:11.000Z,0
2023-05-22T02:24:38.592Z,0
2023-05-22T02:25:43.000Z,0
2023-05-22T02:27:10.729Z,0
2023-05-22T02:28:16.000Z,0
2023-05-22T02:29:32.000Z,0
2023-05-22T02:30:48.000Z,0
2023-05-22T02:32:15.750Z,0
2023-05-22T02:33:31.698Z,0
2023-05-22T02:34:36.000Z,0
2023-05-22T02:35:52.000Z,0
2023-05-22T02:37:19.544Z,0
2023-05-22T02:38:35.731Z,0
2023-05-22T02:39:51.933Z,0
2023-05-22T02:41:08.115Z,0
2023-05-22T02:42:24.070Z,0
2023-05-22T02:43:29.000Z,0
2023-05-22T02:44:45.000Z,0
2023-05-22T02:46:01.000Z,0
2023-05-22T02:47:18.000Z,0
2023-05-22T02:48:34.000Z,0
2023-05-22T02:50:01.231Z,0
2023-05-22T02:51:05.000Z,0
2023-05-22T02:52:21.000Z,0
2023-05-22T02:53:38.000Z,0
2023-05-22T02:54:54.000Z,0
2023-05-22T02:56:10.000Z,0
2023-05-22T02:57:37.410Z,0
2023-05-22T02:58:53.849Z,0
2023-05-22T02:59:59.000Z,0
2023-05-22T03:01:15.000Z,0
2023-05-22T03:02:42.185Z,0
2023-05-22T03:03:58.378Z,4
2023-05-22T03:05:03.000Z,4
2023-05-22T03:06:20.000Z,4
2023-05-22T03:07:35.000Z,4
2023-05-22T03:09:02.170Z,4
2023-05-22T03:10:18.363Z,4
2023-05-22T03:11:23.000Z,8
2023-05-22T03:12:40.000Z,8
2023-05-22T03:14:07.187Z,8
2023-05-22T03:15:12.000Z,12
2023-05-22T03:16:39.332Z,12
2023-05-22T03:17:55.525Z,16
2023-05-22T03:19:11.962Z,20
2023-05-22T03:20:27.912Z,24
2023-05-22T03:21:33.000Z,24
2023-05-22T03:23:00.299Z,32
2023-05-22T03:24:15.509Z,32
2023-05-22T03:25:31.703Z,36
2023-05-22T03:26:37.000Z,40
2023-05-22T03:28:04.333Z,52
2023-05-22T03:29:09.000Z,52
2023-05-22T03:30:25.000Z,60
2023-05-22T03:31:41.000Z,68
2023-05-22T03:33:08.865Z,76
2023-05-22T03:34:25.059Z,80
2023-05-22T03:35:41.252Z,88
2023-05-22T03:36:46.000Z,100
2023-05-22T03:38:13.641Z,108
2023-05-22T03:39:19.000Z,120
2023-05-22T03:40:45.045Z,128
2023-05-22T03:41:50.000Z,140
2023-05-22T03:43:17.431Z,156
2023-05-22T03:44:22.000Z,164
2023-05-22T03:45:49.818Z,180
2023-05-22T03:46:55.000Z,196
2023-05-22T03:48:11.000Z,212
2023-05-22T03:49:27.000Z,228
2023-05-22T03:50:43.000Z,248
2023-05-22T03:52:00.000Z,264
2023-05-22T03:53:16.000Z,284
2023-05-22T03:54:43.174Z,304
2023-05-22T03:55:59.615Z,328
2023-05-22T03:57:03.000Z,352
2023-05-22T03:58:20.000Z,376
2023-05-22T03:59:47.214Z,400
2023-05-22T04:01:03.406Z,428
2023-05-22T04:02:08.000Z,456
2023-05-22T04:03:35.546Z,484
2023-05-22T04:04:41.000Z,508
2023-05-22T04:05:57.000Z,536
2023-05-22T04:07:13.000Z,568
2023-05-22T04:08:40.320Z,596
2023-05-22T04:09:45.000Z,620
2023-05-22T04:11:12.709Z,652
2023-05-22T04:12:18.000Z,684
2023-05-22T04:13:44.359Z,708
2023-05-22T04:15:00.306Z,744
2023-05-22T04:16:05.000Z,768
2023-05-22T04:17:21.000Z,800
2023-05-22T04:18:38.000Z,828
2023-05-22T04:20:05.080Z,856
2023-05-22T04:21:21.274Z,884
2023-05-22T04:22:37.468Z,916
2023-05-22T04:23:42.000Z,952
2023-05-22T04:24:59.000Z,980
2023-05-22T04:26:15.000Z,1008
2023-05-22T04:27:31.000Z,1040
2023-05-22T04:28:47.000Z,1072
2023-05-22T04:30:02.000Z,1108
2023-05-22T04:31:19.000Z,1144
2023-05-22T04:32:46.282Z,1180
2023-05-22T04:34:02.227Z,1212
2023-05-22T04:35:07.000Z,1256
2023-05-22T04:36:34.867Z,1292
2023-05-22T04:37:40.000Z,1328
2023-05-22T04:38:56.000Z,1372
2023-05-22T04:40:12.000Z,1416
2023-05-22T04:41:39.389Z,1464
2023-05-22T04:42:44.000Z,1516
2023-05-22T04:44:01.000Z,1560
2023-05-22T04:45:27.971Z,1608
2023-05-22T04:46:32.000Z,1656
2023-05-22T04:47:48.000Z,1712
2023-05-22T04:49:15.814Z,1776
2023-05-22T04:50:21.000Z,1844
2023-05-22T04:51:47.955Z,1916
2023-05-22T04:52:53.000Z,1996
2023-05-22T04:54:20.342Z,2072
2023-05-22T04:55:25.000Z,2152
2023-05-22T04:56:52.977Z,2240
2023-05-22T04:57:58.000Z,2328
2023-05-22T04:59:25.116Z,2428
2023-05-22T05:00:41.573Z,2532
2023-05-22T05:01:46.000Z,2668
2023-05-22T05:03:01.000Z,2860
2023-05-22T05:04:29.171Z,2992
2023-05-22T05:05:45.101Z,3080
2023-05-22T05:06:50.000Z,3228
2023-05-22T05:08:17.737Z,3356
2023-05-22T05:09:33.683Z,3456
2023-05-22T05:10:50.119Z,3536
2023-05-22T05:12:06.070Z,3584
2023-05-22T05:13:11.000Z,3628
2023-05-22T05:14:38.457Z,3728
2023-05-22T05:15:43.000Z,3832
2023-05-22T05:17:00.000Z,3924
2023-05-22T05:18:27.286Z,4004
2023-05-22T05:19:42.249Z,4056
2023-05-22T05:20:58.687Z,4172
2023-05-22T05:22:03.000Z,4360
2023-05-22T05:23:20.000Z,4432
2023-05-22T05:24:36.000Z,4456
2023-05-22T05:25:52.000Z,4368
2023-05-22T05:27:07.000Z,4400
2023-05-22T05:28:23.000Z,4632
2023-05-22T05:29:50.821Z,4932
2023-05-22T05:31:07.256Z,5124
2023-05-22T05:32:23.456Z,5084
2023-05-22T05:33:28.000Z,4836
2023-05-22T05:34:55.595Z,5068
2023-05-22T05:36:01.000Z,5164
2023-05-22T05:37:17.000Z,5284
2023-05-22T05:38:33.000Z,5268
2023-05-22T05:39:49.000Z,5484
2023-05-22T05:40:48.000Z,6732
2023-05-22T05:41:05.000Z,5716
2023-05-22T05:42:33.022Z,5740
2023-05-22T05:43:37.000Z,5820
2023-05-22T05:45:04.161Z,6144
2023-05-22T05:46:09.000Z,6372
2023-05-22T05:48:52.984Z,6452
2023-05-22T05:50:09.182Z,6392
2023-05-22T05:51:25.129Z,6324
2023-05-22T05:52:41.577Z,7392
2023-05-22T05:53:57.516Z,7376
2023-05-22T05:55:02.000Z,6688
2023-05-22T05:56:19.000Z,7112
2023-05-22T05:57:46.097Z,7432
2023-05-22T05:58:51.000Z,8116
2023-05-22T05:59:50.000Z,7680
2023-05-22T06:00:17.501Z,9040
2023-05-22T06:01:33.942Z,8332
2023-05-22T06:02:22.000Z,6220
2023-05-22T06:02:39.000Z,7656
2023-05-22T06:03:55.000Z,9376
2023-05-22T06:05:22.526Z,7416
2023-05-22T06:07:27.000Z,5456
2023-05-22T06:07:54.663Z,6528
2023-05-22T06:10:27.297Z,6164
2023-05-22T06:11:32.000Z,6720
2023-05-22T06:12:31.000Z,7408
2023-05-22T06:12:59.438Z,5504
2023-05-22T06:15:32.101Z,5844
2023-05-22T06:16:36.000Z,6632
2023-05-22T06:18:03.475Z,8436
2023-05-22T06:20:35.616Z,7456
2023-05-22T06:21:41.000Z,7208
2023-05-22T06:23:08.003Z,7420
2023-05-22T06:24:13.000Z,8032
2023-05-22T06:25:29.000Z,12372
2023-05-22T06:26:56.584Z,7428
2023-05-22T06:28:13.027Z,7128
2023-05-22T06:29:18.000Z,6808
2023-05-22T06:30:34.000Z,7436
2023-05-22T06:31:50.000Z,6552
2023-05-22T06:33:16.569Z,6352
2023-05-22T06:34:22.000Z,6928
2023-05-22T06:35:48.956Z,7048
2023-05-22T06:36:54.000Z,7640
2023-05-22T06:38:21.344Z,7488
2023-05-22T06:39:26.000Z,8176
2023-05-22T06:40:53.973Z,8896
2023-05-22T06:42:10.167Z,6908
2023-05-22T06:43:26.118Z,7192
2023-05-22T06:44:42.312Z,6780
2023-05-22T06:45:58.753Z,6252
2023-05-22T06:47:03.000Z,6764
2023-05-22T06:48:31.142Z,7004
2023-05-22T06:49:35.000Z,7032
2023-05-22T06:50:51.000Z,6584
2023-05-22T06:52:18.739Z,7420
2023-05-22T06:53:34.929Z,8124
2023-05-22T06:54:40.000Z,9072
2023-05-22T06:55:56.000Z,9008
2023-05-22T06:57:12.000Z,9012
2023-05-22T06:58:39.703Z,9416
2023-05-22T06:59:44.000Z,7816
2023-05-22T07:01:01.000Z,6424
2023-05-22T07:02:17.000Z,7124
2023-05-22T07:03:33.000Z,6864
2023-05-22T07:05:00.427Z,7148
2023-05-22T07:06:15.637Z,7024
2023-05-22T07:07:31.831Z,7052
2023-05-22T07:08:37.000Z,6656
2023-05-22T07:10:04.219Z,7952
2023-05-22T07:11:20.659Z,9528
2023-05-22T07:12:25.000Z,8464
2023-05-22T07:13:53.050Z,7620
2023-05-22T07:14:58.000Z,7328
2023-05-22T07:16:25.187Z,7884
2023-05-22T07:17:30.000Z,7592
2023-05-22T07:18:57.823Z,7728
2023-05-22T07:20:14.020Z,7688
2023-05-22T07:21:29.963Z,8044
2023-05-22T07:22:34.000Z,9272
2023-05-22T07:24:01.367Z,9408
2023-05-22T07:25:06.000Z,9148
2023-05-22T07:26:33.754Z,9980
2023-05-22T07:27:39.000Z,9804
2023-05-22T07:28:38.000Z,6960
2023-05-22T07:29:06.142Z,9504
2023-05-22T07:30:22.336Z,8664
2023-05-22T07:31:27.000Z,7408
2023-05-22T07:32:54.971Z,7764
2023-05-22T07:34:00.000Z,7380
2023-05-22T07:36:32.000Z,6636
2023-05-22T07:37:48.000Z,6600
2023-05-22T07:39:14.709Z,7216
2023-05-22T07:40:30.903Z,8608
2023-05-22T07:41:47.097Z,8004
2023-05-22T07:42:52.000Z,6984
2023-05-22T07:44:08.000Z,7500
2023-05-22T07:45:24.000Z,8448
2023-05-22T07:46:41.000Z,9444
2023-05-22T07:47:57.000Z,10384
2023-05-22T07:49:13.000Z,10316
2023-05-22T07:50:40.454Z,9204
2023-05-22T07:51:56.649Z,9192
2023-05-22T07:53:02.000Z,11556
2023-05-22T07:54:29.037Z,12332
2023-05-22T07:55:33.000Z,11028
2023-05-22T07:57:00.440Z,9936
2023-05-22T07:58:05.000Z,10452
2023-05-22T07:59:32.827Z,11176
2023-05-22T08:00:49.021Z,12224
2023-05-22T08:01:54.000Z,13140
2023-05-22T08:03:10.000Z,12860
2023-05-22T08:04:26.000Z,12212
2023-05-22T08:05:43.000Z,12160
2023-05-22T08:07:10.234Z,11920
2023-05-22T08:08:26.436Z,11756
2023-05-22T08:09:42.376Z,11704
2023-05-22T08:10:58.813Z,11716
2023-05-22T08:12:02.000Z,11260
2023-05-22T08:13:19.000Z,12196
2023-05-22T08:14:46.167Z,14612
2023-05-22T08:16:02.608Z,15404
2023-05-22T08:17:07.000Z,13564
2023-05-22T08:18:23.000Z,11876
2023-05-22T08:19:40.000Z,11288
2023-05-22T08:21:07.379Z,11372
2023-05-22T08:22:12.000Z,12640
2023-05-22T08:23:28.000Z,13560
2023-05-22T08:24:44.000Z,13764
2023-05-22T08:26:11.911Z,12792
2023-05-22T08:27:28.104Z,13032
2023-05-22T08:28:32.000Z,12672
2023-05-22T08:29:59.507Z,11212
2023-05-22T08:31:15.701Z,10640
2023-05-22T08:32:32.139Z,10156
2023-05-22T08:33:48.088Z,10508
2023-05-22T08:34:53.000Z,10476
2023-05-22T08:36:09.000Z,10524
2023-05-22T08:37:36.922Z,10252
2023-05-22T08:38:42.000Z,10036
2023-05-22T08:39:58.000Z,9976
2023-05-22T08:41:25.250Z,9312
2023-05-22T08:42:30.000Z,10128
2023-05-22T08:43:46.000Z,10724
2023-05-22T08:45:12.848Z,11060
2023-05-22T08:46:29.285Z,10704
2023-05-22T08:47:45.235Z,9764
2023-05-22T08:49:01.429Z,9376
2023-05-22T08:50:06.000Z,9152
2023-05-22T08:51:23.000Z,10528
2023-05-22T08:52:50.009Z,13152
2023-05-22T08:53:55.000Z,12920
2023-05-22T08:55:22.651Z,10768
2023-05-22T08:56:27.000Z,9348
2023-05-22T08:57:54.785Z,9708
2023-05-22T08:59:10.979Z,10032
2023-05-22T09:00:27.416Z,10172
2023-05-22T09:01:42.624Z,11048
2023-05-22T09:02:47.000Z,10180
2023-05-22T09:04:03.000Z,9268
2023-05-22T09:05:31.203Z,9140
2023-05-22T09:06:36.000Z,9724
2023-05-22T09:07:52.000Z,9396
2023-05-22T09:09:08.000Z,9140
2023-05-22T09:10:35.986Z,8796
2023-05-22T09:11:52.179Z,8540
2023-05-22T09:12:57.000Z,8444
2023-05-22T09:14:24.318Z,8304
2023-05-22T09:15:40.772Z,8424
2023-05-22T09:16:56.705Z,8412
2023-05-22T09:18:01.000Z,8152
2023-05-22T09:19:17.000Z,8312
2023-05-22T09:20:33.000Z,8704
2023-05-22T09:21:49.000Z,8684
2023-05-22T09:23:05.000Z,8608
2023-05-22T09:24:33.128Z,8192
2023-05-22T09:25:38.000Z,8588
2023-05-22T09:27:05.271Z,8500
2023-05-22T09:28:21.716Z,8348
2023-05-22T09:29:26.000Z,8128
2023-05-22T09:30:43.000Z,9016
2023-05-22T09:31:59.000Z,9132
2023-05-22T09:33:26.240Z,8476
2023-05-22T09:34:30.000Z,8732
2023-05-22T09:35:57.891Z,9504
2023-05-22T09:37:13.838Z,10004
2023-05-22T09:38:30.031Z,9640
2023-05-22T09:39:35.000Z,10828
2023-05-22T09:41:02.418Z,10144
2023-05-22T09:42:06.000Z,10564
2023-05-22T09:43:23.000Z,11652
2023-05-22T09:44:50.275Z,9844
2023-05-22T09:46:06.215Z,9740
2023-05-22T09:47:11.000Z,11368
2023-05-22T09:48:38.848Z,14152
2023-05-22T09:49:43.000Z,12200
2023-05-22T09:51:11.235Z,9892
2023-05-22T09:52:27.426Z,11232
2023-05-22T09:53:32.000Z,12580
2023-05-22T09:54:48.000Z,13588
2023-05-22T09:56:04.000Z,13772
2023-05-22T09:57:21.000Z,13992
2023-05-22T09:58:47.169Z,13236
2023-05-22T09:59:52.000Z,11500
2023-05-22T10:01:19.803Z,10288
2023-05-22T10:02:24.000Z,9412
2023-05-22T10:03:52.189Z,10256
2023-05-22T10:04:57.000Z,9876
2023-05-22T10:06:24.584Z,9680
2023-05-22T10:07:29.000Z,9988
2023-05-22T10:08:56.717Z,10820
2023-05-22T10:10:02.000Z,11476
2023-05-22T10:11:29.104Z,10344
2023-05-22T10:12:45.298Z,11700
2023-05-22T10:14:01.491Z,10644
2023-05-22T10:15:16.701Z,9252
2023-05-22T10:16:33.141Z,8964
2023-05-22T10:17:38.000Z,9376
2023-05-22T10:19:05.283Z,10048
2023-05-22T10:20:21.477Z,9396
2023-05-22T10:21:37.670Z,9452
2023-05-22T10:22:43.000Z,10960
2023-05-22T10:24:10.057Z,10864
2023-05-22T10:25:26.515Z,10844
2023-05-22T10:26:42.696Z,9828
2023-05-22T10:27:58.640Z,8432
2023-05-22T10:29:03.000Z,10316
2023-05-22T10:30:20.000Z,12152
2023-05-22T10:31:46.486Z,12660
2023-05-22T10:32:51.000Z,12064
2023-05-22T10:34:07.000Z,10912
2023-05-22T10:35:23.000Z,9732
2023-05-22T10:36:51.019Z,8636
2023-05-22T10:38:07.468Z,9556
2023-05-22T10:39:23.410Z,9204
2023-05-22T10:40:28.000Z,9304
2023-05-22T10:41:44.000Z,9744
2023-05-22T10:43:12.244Z,10724
2023-05-22T10:44:17.000Z,10328
2023-05-22T10:45:44.384Z,9108
2023-05-22T10:46:49.000Z,13300
2023-05-22T10:48:04.000Z,11828
2023-05-22T10:49:32.247Z,9548
2023-05-22T10:50:37.000Z,12960
2023-05-22T10:52:04.377Z,12724
2023-05-22T10:53:38.820Z,11664
2023-05-22T10:54:25.000Z,10020
2023-05-22T10:55:42.000Z,9060
2023-05-22T10:56:58.000Z,9136
2023-05-22T10:58:14.000Z,10340
2023-05-22T10:59:41.549Z,10112
2023-05-22T11:00:46.000Z,9360
2023-05-22T11:02:14.189Z,8272
2023-05-22T11:03:30.136Z,8260
2023-05-22T11:04:45.348Z,8972
2023-05-22T11:05:50.000Z,8248
2023-05-22T11:07:17.738Z,8188
2023-05-22T11:08:33.934Z,7680
2023-05-22T11:09:50.130Z,9124
2023-05-22T11:10:55.000Z,11004
2023-05-22T11:12:11.000Z,9748
2023-05-22T11:13:27.000Z,8756
2023-05-22T11:14:44.000Z,9148
2023-05-22T11:16:00.000Z,9760
2023-05-22T11:17:27.555Z,8384
2023-05-22T11:18:32.000Z,8680
2023-05-22T11:19:48.000Z,10064
2023-05-22T11:21:04.000Z,13852
2023-05-22T11:22:20.000Z,12276
2023-05-22T11:23:47.541Z,11764
2023-05-22T11:25:03.742Z,11748
2023-05-22T11:26:19.936Z,10304
2023-05-22T11:27:35.884Z,10104
2023-05-22T11:28:41.000Z,12008
2023-05-22T11:29:57.000Z,10688
2023-05-22T11:31:13.000Z,8924
2023-05-22T11:32:40.929Z,8248
2023-05-22T11:33:45.000Z,8000
2023-05-22T11:35:13.058Z,7304
2023-05-22T11:36:29.253Z,6916
2023-05-22T11:37:44.707Z,6852
2023-05-22T11:38:49.000Z,7028
2023-05-22T11:40:17.099Z,6956
2023-05-22T11:41:33.292Z,7024
2023-05-22T11:42:49.247Z,6980
2023-05-22T11:43:54.000Z,7080
2023-05-22T11:45:10.000Z,7448
2023-05-22T11:46:38.076Z,7700
2023-05-22T11:47:54.276Z,7348
2023-05-22T11:49:10.464Z,7216
2023-05-22T11:50:26.665Z,7188
2023-05-22T11:51:42.873Z,7052
2023-05-22T11:52:47.000Z,6804
2023-05-22T11:54:03.000Z,6876
2023-05-22T11:55:19.000Z,6792
2023-05-22T11:56:46.663Z,6824
2023-05-22T11:58:02.610Z,6892
2023-05-22T11:59:07.000Z,6872
2023-05-22T12:00:24.000Z,7232
2023-05-22T12:01:40.000Z,7932
2023-05-22T12:02:56.000Z,7044
2023-05-22T12:04:12.000Z,6732
2023-05-22T12:05:40.035Z,6904
2023-05-22T12:06:45.000Z,7576
2023-05-22T12:08:01.000Z,7972
2023-05-22T12:09:17.000Z,7400
2023-05-22T12:10:43.582Z,6980
2023-05-22T12:12:00.022Z,7244
2023-05-22T12:13:16.215Z,7484
2023-05-22T12:14:32.167Z,7608
2023-05-22T12:15:37.000Z,7124
2023-05-22T12:17:04.802Z,6880
2023-05-22T12:18:20.754Z,7640
2023-05-22T12:19:26.000Z,8664
2023-05-22T12:20:53.387Z,7684
2023-05-22T12:22:09.585Z,7152
2023-05-22T12:23:25.537Z,6940
2023-05-22T12:24:41.732Z,6944
2023-05-22T12:25:57.928Z,7804
2023-05-22T12:27:02.000Z,7600
2023-05-22T12:28:18.000Z,7136
2023-05-22T12:29:34.000Z,7048
2023-05-22T12:30:50.000Z,7040
2023-05-22T12:32:07.000Z,7124
2023-05-22T12:33:34.117Z,7192
2023-05-22T12:34:50.553Z,7428
2023-05-22T12:36:06.509Z,7324
2023-05-22T12:37:22.704Z,6880
2023-05-22T12:38:38.900Z,6768
2023-05-22T12:39:44.000Z,6856
2023-05-22T12:41:11.291Z,6852
2023-05-22T12:42:27.736Z,7160
2023-05-22T12:43:42.698Z,7440
2023-05-22T12:44:58.893Z,7044
2023-05-22T12:46:15.088Z,6816
2023-05-22T12:47:20.000Z,6736
2023-05-22T12:48:47.480Z,6744
2023-05-22T12:50:03.675Z,6852
2023-05-22T12:51:08.000Z,6768
2023-05-22T12:52:36.066Z,6760
2023-05-22T12:53:52.262Z,6664
2023-05-22T12:54:57.000Z,6684
2023-05-22T12:56:24.911Z,6748
2023-05-22T12:57:29.000Z,6780
2023-05-22T12:58:57.288Z,6784
2023-05-22T13:00:01.000Z,6808
2023-05-22T13:01:17.000Z,6772
2023-05-22T13:02:33.000Z,6780
2023-05-22T13:04:00.843Z,6896
2023-05-22T13:05:17.283Z,6824
2023-05-22T13:06:33.234Z,6784
2023-05-22T13:07:38.000Z,6812
2023-05-22T13:08:54.000Z,6836
2023-05-22T13:10:21.820Z,6988
2023-05-22T13:11:38.266Z,7184
2023-05-22T13:12:43.000Z,7088
2023-05-22T13:14:10.655Z,7320
2023-05-22T13:15:15.000Z,7408
2023-05-22T13:16:30.000Z,7600
2023-05-22T13:17:47.000Z,7104
2023-05-22T13:19:14.205Z,6716
2023-05-22T13:20:30.400Z,6716
2023-05-22T13:21:46.596Z,6972
2023-05-22T13:22:51.000Z,7128
2023-05-22T13:24:08.000Z,6948
2023-05-22T13:25:24.000Z,7296
2023-05-22T13:26:51.379Z,7788
2023-05-22T13:27:56.000Z,8240
2023-05-22T13:29:12.000Z,8536
2023-05-22T13:30:29.000Z,8352
2023-05-22T13:31:56.161Z,7528
2023-05-22T13:33:12.356Z,7984
2023-05-22T13:34:16.000Z,7412
2023-05-22T13:35:32.000Z,6664
2023-05-22T13:36:49.000Z,8164
2023-05-22T13:38:05.000Z,9612
2023-05-22T13:39:32.595Z,10092
2023-05-22T13:40:48.786Z,8744
2023-05-22T13:42:04.741Z,7820
2023-05-22T13:43:20.936Z,7680
2023-05-22T13:44:37.132Z,7572
2023-05-22T13:45:53.327Z,7504
2023-05-22T13:47:09.523Z,7356
2023-05-22T13:48:25.718Z,7800
2023-05-22T13:49:42.161Z,8140
2023-05-22T13:50:46.000Z,7760
2023-05-22T13:52:13.322Z,7268
2023-05-22T13:53:18.000Z,7256
2023-05-22T13:54:45.959Z,7236
2023-05-22T13:56:01.908Z,7316
2023-05-22T13:57:17.125Z,7600
2023-05-22T13:58:22.000Z,7496
2023-05-22T13:59:38.000Z,7544
2023-05-22T14:00:54.000Z,7672
2023-05-22T14:02:21.908Z,7752
2023-05-22T14:03:27.000Z,7552
2023-05-22T14:04:43.000Z,7380
2023-05-22T14:05:59.000Z,7344
2023-05-22T14:07:15.000Z,7500
2023-05-22T14:08:31.000Z,7280
2023-05-22T14:09:59.332Z,7268
2023-05-22T14:11:04.000Z,7428
2023-05-22T14:12:20.000Z,7620
2023-05-22T14:13:35.000Z,7712
2023-05-22T14:14:51.000Z,7784
2023-05-22T14:16:08.000Z,7296
2023-05-22T14:17:35.272Z,7584
2023-05-22T14:18:40.000Z,7736
2023-05-22T14:19:56.000Z,7856
2023-05-22T14:21:12.000Z,7908
2023-05-22T14:22:29.000Z,8136
2023-05-22T14:23:45.000Z,7680
2023-05-22T14:25:12.693Z,7268
2023-05-22T14:26:17.000Z,7328
2023-05-22T14:27:45.088Z,7316
2023-05-22T14:29:01.032Z,7348
2023-05-22T14:30:16.244Z,7308
2023-05-22T14:31:21.000Z,7320
2023-05-22T14:32:37.000Z,7508
2023-05-22T14:33:53.000Z,7428
2023-05-22T14:35:21.026Z,7304
2023-05-22T14:36:26.000Z,7388
2023-05-22T14:37:42.000Z,7560
2023-05-22T14:38:58.000Z,7696
2023-05-22T14:40:14.000Z,7328
2023-05-22T14:41:31.000Z,7132
2023-05-22T14:42:47.000Z,7284
2023-05-22T14:44:03.000Z,7420
2023-05-22T14:45:19.000Z,7548
2023-05-22T14:46:34.000Z,7936
2023-05-22T14:48:01.998Z,7604
2023-05-22T14:49:07.000Z,7324
2023-05-22T14:50:34.389Z,7280
2023-05-22T14:51:39.000Z,7396
2023-05-22T14:53:06.780Z,8240
2023-05-22T14:54:23.226Z,9844
2023-05-22T14:55:28.000Z,8840
2023-05-22T14:56:44.000Z,8044
2023-05-22T14:58:00.000Z,7480
2023-05-22T14:59:16.000Z,7228
2023-05-22T15:00:33.000Z,7032
2023-05-22T15:01:49.000Z,7032
2023-05-22T15:03:04.000Z,7028
2023-05-22T15:04:31.798Z,7124
2023-05-22T15:05:36.000Z,7152
2023-05-22T15:07:03.948Z,7084
2023-05-22T15:08:20.144Z,7156
2023-05-22T15:09:36.339Z,7272
2023-05-22T15:10:41.000Z,7340
2023-05-22T15:11:57.000Z,7284
2023-05-22T15:13:25.187Z,7256
2023-05-22T15:14:41.121Z,7196
2023-05-22T15:15:46.000Z,7068
2023-05-22T15:17:02.000Z,7036
2023-05-22T15:18:18.000Z,7036
2023-05-22T15:19:33.000Z,7040
2023-05-22T15:20:50.000Z,7008
2023-05-22T15:22:06.000Z,6864
2023-05-22T15:23:22.000Z,6964
2023-05-22T15:24:38.000Z,7252
2023-05-22T15:26:05.900Z,7156
2023-05-22T15:27:22.095Z,7212
2023-05-22T15:28:27.000Z,7232
2023-05-22T15:29:54.738Z,7608
2023-05-22T15:30:59.000Z,7564
2023-05-22T15:32:15.000Z,7284
2023-05-22T15:33:32.000Z,7384
2023-05-22T15:34:59.519Z,7328
2023-05-22T15:36:14.484Z,7856
2023-05-22T15:37:30.679Z,7448
2023-05-22T15:38:35.000Z,7404
2023-05-22T15:40:03.070Z,8376
2023-05-22T15:41:08.000Z,7792
2023-05-22T15:42:24.000Z,7108
2023-05-22T15:43:40.000Z,7068
2023-05-22T15:44:56.000Z,6988
2023-05-22T15:46:13.000Z,6808
2023-05-22T15:47:29.000Z,6728
2023-05-22T15:48:45.000Z,6552
2023-05-22T15:50:01.000Z,6856
2023-05-22T15:51:28.835Z,6448
2023-05-22T15:52:44.299Z,6808
2023-05-22T15:53:49.000Z,6708
2023-05-22T15:55:05.000Z,6776
2023-05-22T15:56:32.884Z,6392
2023-05-22T15:57:37.000Z,6520
2023-05-22T15:59:05.025Z,6644
2023-05-22T16:00:21.220Z,7224
2023-05-22T16:01:26.000Z,7504
2023-05-22T16:02:42.000Z,7004
2023-05-22T16:03:58.000Z,7308
2023-05-22T16:05:15.000Z,8500
2023-05-22T16:06:42.455Z,8444
2023-05-22T16:07:58.395Z,7852
2023-05-22T16:09:13.608Z,8340
2023-05-22T16:10:18.000Z,7884
2023-05-22T16:11:46.256Z,7316
2023-05-22T16:12:51.000Z,6672
2023-05-22T16:14:07.000Z,6528
2023-05-22T16:15:23.000Z,6756
2023-05-22T16:16:39.000Z,6476
2023-05-22T16:17:55.000Z,6328
2023-05-22T16:19:12.000Z,6548
2023-05-22T16:20:28.000Z,6484
2023-05-22T16:21:55.816Z,7088
2023-05-22T16:23:00.000Z,7000
2023-05-22T16:24:16.000Z,6924
2023-05-22T16:25:32.000Z,6980
2023-05-22T16:26:48.000Z,6756
2023-05-22T16:28:04.000Z,6884
2023-05-22T16:29:31.757Z,6848
2023-05-22T16:30:36.000Z,6928
2023-05-22T16:32:04.150Z,6516
2023-05-22T16:33:09.000Z,5936
2023-05-22T16:34:25.000Z,5796
2023-05-22T16:35:41.000Z,6220
2023-05-22T16:37:08.934Z,6368
2023-05-22T16:38:25.129Z,6372
2023-05-22T16:39:30.000Z,6352
2023-05-22T16:40:57.521Z,6544
2023-05-22T16:42:12.734Z,6544
2023-05-22T16:43:17.000Z,6380
2023-05-22T16:44:34.000Z,6548
2023-05-22T16:45:50.000Z,6540
2023-05-22T16:47:17.766Z,6688
2023-05-22T16:48:33.713Z,7296
2023-05-22T16:49:38.000Z,7488
2023-05-22T16:51:06.104Z,7124
2023-05-22T16:52:11.000Z,6876
2023-05-22T16:53:27.000Z,6464
2023-05-22T16:54:54.692Z,6356
2023-05-22T16:56:10.887Z,6620
2023-05-22T16:57:27.085Z,6304
2023-05-22T16:58:42.542Z,5992
2023-05-22T16:59:47.000Z,6428
2023-05-22T17:01:59.218Z,6764
2023-05-22T17:02:19.000Z,5816
2023-05-22T17:03:36.000Z,6032
2023-05-22T17:04:52.000Z,5912
2023-05-22T17:06:08.000Z,5108
2023-05-22T17:07:35.666Z,5204
2023-05-22T17:08:51.861Z,4808
2023-05-22T17:09:39.000Z,5404